Terminal Aerodrome Forecast
Issued by NWS

Home | Current Version | Previous Version | Text Only | Print | Product List | Glossary On
Versions: 1 2 3 4 5 6 7 8 9 10 11 12 13 14 15
000
FTUS43 KGRR 040700 AAB
TAFMKG
TAF AMD
KMKG 040739Z 0408/0506 17014G20KT 6SM -SHRA VCTS SCT070CB OVC090
     FM040900 25012KT P6SM -SHRA VCTS SCT040CB OVC050
     FM041500 23009KT P6SM VCSH OVC025
     FM041800 28009KT P6SM VCSH OVC020
     FM042200 33009KT P6SM OVC035=

USA.gov is the U.S. government's official web portal to all federal, state and local government web resources and services.